Time;durP1;ratioP1;P1;durP2;ratioP2;P2;SDS_P1;SDS_P2;PMS_P1;PMS_P2;Temp;Humidity;BMP_temperature;BMP_pressure;BME280_temperature;BME280_humidity;BME280_pressure;Samples;Min_cycle;Max_cycle;Signal;HPM_P1;HPM_P2
2022/11/21 00:00:17;;;;;;;;;;;8.30;99.90;;;;;;5094710;28;20370;-73
2022/11/21 00:02:42;;;;;;;;;;;8.40;99.90;;;;;;5094119;28;19915;-73
2022/11/21 00:05:08;;;;;;;;;;;8.50;99.90;;;;;;5094686;28;20027;-71
2022/11/21 00:07:34;;;;;;;;;;;8.40;99.90;;;;;;5094037;28;19908;-72
2022/11/21 00:09:59;;;;;;;;;;;8.50;99.90;;;;;;5094213;28;20058;-71
2022/11/21 00:12:25;;;;;;;;;;;8.50;99.90;;;;;;5093957;28;19995;-72
2022/11/21 00:14:50;;;;;;;;;;;8.50;99.90;;;;;;5094267;28;19908;-71
2022/11/21 00:17:16;;;;;;;;;;;8.50;99.90;;;;;;5093904;28;19908;-72
2022/11/21 00:19:41;;;;;;;;;;;8.60;99.90;;;;;;5094145;28;19915;-70
2022/11/21 00:22:07;;;;;;;;;;;8.60;99.90;;;;;;5093839;28;20391;-72
2022/11/21 00:24:32;;;;;;;;;;;8.60;99.90;;;;;;5094370;28;19957;-71
2022/11/21 00:26:58;;;;;;;;;;;8.60;99.90;;;;;;5093824;28;19999;-72
2022/11/21 00:29:23;;;;;;;;;;;8.70;99.90;;;;;;5093801;28;20348;-73
2022/11/21 00:31:49;;;;;;;;;;;8.80;99.90;;;;;;5093699;28;19916;-71
2022/11/21 00:34:15;;;;;;;;;;;8.70;99.90;;;;;;5093774;28;19914;-71
2022/11/21 00:36:41;;;;;;;;;;;8.70;99.90;;;;;;5093975;28;19908;-71
2022/11/21 00:39:06;;;;;;;;;;;8.70;99.90;;;;;;5093672;28;19915;-71
2022/11/21 00:41:32;;;;;;;;;;;8.70;99.90;;;;;;5093937;28;19912;-71
2022/11/21 00:43:57;;;;;;;;;;;8.80;99.90;;;;;;5093550;28;19908;-72
2022/11/21 00:46:23;;;;;;;;;;;8.70;99.90;;;;;;5094189;28;19909;-71
2022/11/21 00:48:48;;;;;;;;;;;8.70;99.90;;;;;;5095829;28;20027;-72
2022/11/21 00:51:14;;;;;;;;;;;8.70;99.90;;;;;;5097798;28;19912;-73
2022/11/21 00:53:39;;;;;;;;;;;8.80;99.90;;;;;;5097731;28;19915;-69
2022/11/21 00:56:05;;;;;;;;;;;8.80;99.90;;;;;;5097676;28;20266;-72
2022/11/21 00:58:30;;;;;;;;;;;8.70;99.90;;;;;;5097581;28;19943;-70
2022/11/21 01:01:03;;;;;;;;;;;8.70;99.90;;;;;;5097517;28;19994;-72
2022/11/21 01:03:30;;;;;;;;;;;8.70;99.90;;;;;;5097483;28;20294;-72
2022/11/21 01:05:59;;;;;;;;;;;8.70;99.90;;;;;;5097388;28;20418;-70
2022/11/21 01:08:24;;;;;;;;;;;8.70;99.90;;;;;;5097419;28;19995;-71
2022/11/21 01:10:50;;;;;;;;;;;8.70;99.90;;;;;;5097573;28;20342;-72
2022/11/21 01:13:15;;;;;;;;;;;8.70;99.90;;;;;;5097315;28;19915;-71
2022/11/21 01:15:41;;;;;;;;;;;8.70;99.90;;;;;;5097287;28;19962;-70
2022/11/21 01:18:06;;;;;;;;;;;8.70;99.90;;;;;;5097507;28;19908;-69
2022/11/21 01:20:32;;;;;;;;;;;8.70;99.90;;;;;;5097157;28;19908;-70
2022/11/21 01:22:57;;;;;;;;;;;8.70;99.90;;;;;;5097398;28;19908;-73
2022/11/21 01:25:23;;;;;;;;;;;8.70;99.90;;;;;;5097103;28;19908;-72
2022/11/21 01:27:48;;;;;;;;;;;8.70;99.90;;;;;;5097327;28;19943;-70
2022/11/21 01:30:14;;;;;;;;;;;8.80;99.90;;;;;;5096876;28;19912;-71
2022/11/21 01:32:39;;;;;;;;;;;8.70;99.90;;;;;;5096931;28;19954;-71
2022/11/21 01:35:05;;;;;;;;;;;8.60;99.90;;;;;;5096940;28;19908;-71
2022/11/21 01:37:30;;;;;;;;;;;8.60;99.90;;;;;;5096876;28;19934;-71
2022/11/21 01:39:56;;;;;;;;;;;8.60;99.90;;;;;;5097072;28;19909;-72
2022/11/21 01:42:22;;;;;;;;;;;8.60;99.90;;;;;;5096711;28;20405;-71
2022/11/21 01:44:49;;;;;;;;;;;8.60;99.90;;;;;;5097211;28;19947;-72
2022/11/21 01:47:17;;;;;;;;;;;8.60;99.90;;;;;;5096889;28;19958;-72
2022/11/21 01:49:44;;;;;;;;;;;8.70;99.90;;;;;;5096905;28;19908;-71
2022/11/21 01:52:16;;;;;;;;;;;8.70;99.90;;;;;;5095848;28;19924;-72
2022/11/21 01:54:42;;;;;;;;;;;8.70;99.90;;;;;;5095639;28;19957;-73
2022/11/21 01:57:19;;;;;;;;;;;8.60;99.90;;;;;;5095594;28;19908;-72
2022/11/21 01:59:48;;;;;;;;;;;8.60;99.90;;;;;;5094872;28;19923;-73
2022/11/21 02:02:15;;;;;;;;;;;8.60;99.90;;;;;;5095471;28;19908;-74
2022/11/21 02:04:42;;;;;;;;;;;8.60;99.90;;;;;;5095172;28;19908;-72
2022/11/21 02:07:08;;;;;;;;;;;8.60;99.90;;;;;;5095493;28;19909;-71
2022/11/21 02:09:36;;;;;;;;;;;8.60;99.90;;;;;;5095136;28;19915;-72
2022/11/21 02:12:05;;;;;;;;;;;8.60;99.90;;;;;;5095343;28;19913;-71
2022/11/21 02:14:31;;;;;;;;;;;8.60;99.90;;;;;;5095077;28;19908;-70
2022/11/21 02:16:58;;;;;;;;;;;8.60;99.90;;;;;;5095296;28;20373;-71
2022/11/21 02:19:35;;;;;;;;;;;8.60;99.90;;;;;;5094965;28;19956;-70
2022/11/21 02:22:07;;;;;;;;;;;8.60;99.90;;;;;;5095236;28;19908;-73
2022/11/21 02:24:40;;;;;;;;;;;8.60;99.90;;;;;;5093607;28;19998;-73
2022/11/21 02:27:05;;;;;;;;;;;8.60;99.90;;;;;;5095384;28;20282;-71
2022/11/21 02:29:31;;;;;;;;;;;8.60;99.90;;;;;;5094788;28;19908;-73
2022/11/21 02:32:04;;;;;;;;;;;8.60;99.90;;;;;;5095202;28;19912;-72
2022/11/21 02:34:29;;;;;;;;;;;8.60;99.90;;;;;;5094678;28;19912;-73
2022/11/21 02:36:55;;;;;;;;;;;8.60;99.90;;;;;;5094674;28;19973;-72
2022/11/21 02:39:35;;;;;;;;;;;8.60;99.90;;;;;;5094901;28;19915;-73
2022/11/21 02:42:23;;;;;;;;;;;8.60;99.90;;;;;;5094542;28;19917;-71
2022/11/21 02:45:12;;;;;;;;;;;8.60;99.90;;;;;;5063089;28;19908;-73
2022/11/21 02:47:39;;;;;;;;;;;8.60;99.90;;;;;;5095348;28;19908;-71
2022/11/21 02:50:25;;;;;;;;;;;8.60;99.90;;;;;;5094383;28;19957;-70
2022/11/21 02:52:51;;;;;;;;;;;8.60;99.90;;;;;;5028692;28;1866550;-70
2022/11/21 02:55:16;;;;;;;;;;;8.60;99.90;;;;;;5095413;28;20323;-70
2022/11/21 02:57:42;;;;;;;;;;;8.70;99.90;;;;;;5095568;28;19908;-72
2022/11/21 03:00:08;;;;;;;;;;;8.70;99.90;;;;;;5095282;28;19908;-73
2022/11/21 03:02:34;;;;;;;;;;;8.70;99.90;;;;;;5095209;28;19991;-72
2022/11/21 03:05:00;;;;;;;;;;;8.70;99.90;;;;;;5095491;28;19959;-70
2022/11/21 03:07:25;;;;;;;;;;;8.70;99.90;;;;;;5095143;28;19915;-71
2022/11/21 03:09:51;;;;;;;;;;;8.80;99.90;;;;;;5094998;28;19908;-72
2022/11/21 03:12:16;;;;;;;;;;;8.80;99.90;;;;;;5094530;28;19908;-72
2022/11/21 03:14:42;;;;;;;;;;;8.90;99.90;;;;;;5095253;28;19944;-71
2022/11/21 03:17:07;;;;;;;;;;;8.90;99.90;;;;;;5094940;28;19908;-72
2022/11/21 03:19:33;;;;;;;;;;;8.90;99.90;;;;;;5094900;28;20380;-70
2022/11/21 03:21:58;;;;;;;;;;;8.90;99.90;;;;;;5095114;28;20277;-73
2022/11/21 03:24:24;;;;;;;;;;;8.90;99.90;;;;;;5094760;28;19908;-73
2022/11/21 03:26:49;;;;;;;;;;;8.90;99.90;;;;;;5094778;28;19995;-71
2022/11/21 03:29:15;;;;;;;;;;;8.90;99.90;;;;;;5094956;28;19908;-73
2022/11/21 03:31:40;;;;;;;;;;;8.90;99.90;;;;;;5094597;28;19947;-72
2022/11/21 03:34:06;;;;;;;;;;;8.90;99.90;;;;;;5095217;28;20422;-74
2022/11/21 03:36:31;;;;;;;;;;;8.90;99.90;;;;;;5094600;28;19916;-72
2022/11/21 03:38:57;;;;;;;;;;;8.90;99.90;;;;;;5094591;28;19909;-72
2022/11/21 03:41:29;;;;;;;;;;;8.90;99.90;;;;;;5076285;28;19908;-73
2022/11/21 03:43:55;;;;;;;;;;;8.90;99.90;;;;;;5076130;28;20412;-73
2022/11/21 03:46:21;;;;;;;;;;;8.90;99.90;;;;;;5095009;28;20301;-73
2022/11/21 03:48:46;;;;;;;;;;;8.90;99.90;;;;;;5095316;28;19908;-73
2022/11/21 03:51:12;;;;;;;;;;;9.00;99.90;;;;;;5095449;28;19920;-70
2022/11/21 03:53:37;;;;;;;;;;;9.00;99.90;;;;;;5095468;28;19982;-72
2022/11/21 03:56:03;;;;;;;;;;;9.10;99.90;;;;;;5094525;28;20388;-73
2022/11/21 03:58:28;;;;;;;;;;;9.10;99.90;;;;;;5094213;28;19908;-72
2022/11/21 04:00:54;;;;;;;;;;;9.10;99.90;;;;;;5094453;28;19914;-72
2022/11/21 04:03:19;;;;;;;;;;;9.20;99.90;;;;;;5094126;28;20284;-73
2022/11/21 04:05:45;;;;;;;;;;;9.20;99.90;;;;;;5094406;28;19908;-72
2022/11/21 04:08:11;;;;;;;;;;;9.20;99.90;;;;;;5075938;28;19908;-72
2022/11/21 04:10:36;;;;;;;;;;;9.20;99.90;;;;;;5093995;28;19912;-72
2022/11/21 04:13:02;;;;;;;;;;;9.30;99.90;;;;;;5094281;28;20040;-72
2022/11/21 04:15:27;;;;;;;;;;;9.30;99.90;;;;;;5093961;28;19908;-71
2022/11/21 04:17:53;;;;;;;;;;;9.30;99.90;;;;;;5093923;28;20370;-72
2022/11/21 04:20:18;;;;;;;;;;;9.40;99.90;;;;;;5093897;28;19908;-71
2022/11/21 04:22:44;;;;;;;;;;;9.40;99.90;;;;;;5094026;28;19931;-73
2022/11/21 04:25:09;;;;;;;;;;;9.40;99.90;;;;;;5093781;28;19919;-71
2022/11/21 04:27:35;;;;;;;;;;;9.40;99.90;;;;;;5094032;28;19908;-71
2022/11/21 04:30:00;;;;;;;;;;;9.40;99.90;;;;;;5093648;28;19999;-71
2022/11/21 04:32:26;;;;;;;;;;;9.40;99.90;;;;;;5094272;28;20353;-73
2022/11/21 04:34:51;;;;;;;;;;;9.40;99.90;;;;;;5093705;28;19951;-71
2022/11/21 04:37:17;;;;;;;;;;;9.40;99.90;;;;;;5093678;28;19915;-72
2022/11/21 04:39:42;;;;;;;;;;;9.40;99.90;;;;;;5093938;28;20319;-73
2022/11/21 04:42:08;;;;;;;;;;;9.40;99.90;;;;;;5093617;28;20411;-71
2022/11/21 04:44:33;;;;;;;;;;;9.40;99.90;;;;;;5093818;28;19915;-70
2022/11/21 04:46:59;;;;;;;;;;;9.40;99.90;;;;;;5093672;28;19912;-73
2022/11/21 04:49:25;;;;;;;;;;;9.40;99.90;;;;;;5094415;28;19908;-71
2022/11/21 04:51:50;;;;;;;;;;;9.40;99.90;;;;;;5093284;28;20003;-70
2022/11/21 04:54:16;;;;;;;;;;;9.40;99.90;;;;;;5093577;28;19997;-72
2022/11/21 04:56:41;;;;;;;;;;;9.40;99.90;;;;;;5093835;28;20001;-70
2022/11/21 04:59:07;;;;;;;;;;;9.30;99.90;;;;;;5093457;28;20366;-72
2022/11/21 05:01:33;;;;;;;;;;;9.30;99.90;;;;;;5093769;28;19996;-71
2022/11/21 05:03:58;;;;;;;;;;;9.40;99.90;;;;;;5093419;28;19947;-71
2022/11/21 05:06:24;;;;;;;;;;;9.40;99.90;;;;;;5093712;28;19945;-70
2022/11/21 05:08:49;;;;;;;;;;;9.40;99.90;;;;;;5093402;28;20354;-73
2022/11/21 05:13:59;;;;;;;;;;;9.40;99.90;;;;;;5093132;28;20329;-71
2022/11/21 05:16:24;;;;;;;;;;;9.50;99.90;;;;;;5093346;28;19908;-74
2022/11/21 05:18:50;;;;;;;;;;;9.50;99.90;;;;;;5093609;28;19919;-73
2022/11/21 05:21:15;;;;;;;;;;;9.50;99.90;;;;;;5093326;28;19909;-73
2022/11/21 05:23:41;;;;;;;;;;;9.50;99.90;;;;;;5093639;28;20375;-71
2022/11/21 05:26:06;;;;;;;;;;;9.50;99.90;;;;;;5093245;28;19908;-73
2022/11/21 05:28:32;;;;;;;;;;;9.50;99.90;;;;;;5093525;28;20404;-71
2022/11/21 05:30:57;;;;;;;;;;;9.50;99.90;;;;;;5093425;28;20073;-71
2022/11/21 05:33:23;;;;;;;;;;;9.50;99.90;;;;;;5093228;28;20049;-71
2022/11/21 05:35:48;;;;;;;;;;;9.50;99.90;;;;;;5096498;28;20080;-70
2022/11/21 05:38:14;;;;;;;;;;;9.50;99.90;;;;;;5096859;28;19908;-71
2022/11/21 05:40:39;;;;;;;;;;;9.50;99.90;;;;;;5096887;28;20398;-73
2022/11/21 05:45:49;;;;;;;;;;;9.50;99.90;;;;;;5097115;28;19959;-72
2022/11/21 05:48:14;;;;;;;;;;;9.50;99.90;;;;;;5097509;28;19892;-70
2022/11/21 05:50:40;;;;;;;;;;;9.50;99.90;;;;;;5096604;28;19926;-73
2022/11/21 05:53:05;;;;;;;;;;;9.50;99.90;;;;;;5096286;28;20274;-73
2022/11/21 05:55:34;;;;;;;;;;;9.50;99.90;;;;;;5096562;28;19908;-73
2022/11/21 05:57:59;;;;;;;;;;;9.50;99.90;;;;;;5096533;28;20404;-73
2022/11/21 06:00:25;;;;;;;;;;;9.50;99.90;;;;;;5097038;28;19908;-73
2022/11/21 06:05:35;;;;;;;;;;;9.60;99.90;;;;;;5096174;28;19915;-70
2022/11/21 06:08:00;;;;;;;;;;;9.60;99.90;;;;;;5096325;28;19943;-70
2022/11/21 06:10:26;;;;;;;;;;;9.60;99.90;;;;;;5096459;28;19912;-71
2022/11/21 06:12:51;;;;;;;;;;;9.60;99.90;;;;;;5078049;28;19915;-72
2022/11/21 06:15:17;;;;;;;;;;;9.70;99.90;;;;;;5096206;28;19950;-72
2022/11/21 06:17:42;;;;;;;;;;;9.70;99.90;;;;;;5096148;28;19912;-71
2022/11/21 06:20:08;;;;;;;;;;;9.70;99.90;;;;;;5096661;28;20000;-73
2022/11/21 06:22:34;;;;;;;;;;;9.70;99.90;;;;;;5096026;28;19914;-72
2022/11/21 06:24:59;;;;;;;;;;;9.70;99.90;;;;;;5095973;28;19912;-71
2022/11/21 06:27:25;;;;;;;;;;;9.80;99.90;;;;;;5096503;28;19908;-72
2022/11/21 06:29:50;;;;;;;;;;;9.80;99.90;;;;;;5095896;28;19973;-72
2022/11/21 06:32:16;;;;;;;;;;;9.80;99.90;;;;;;5096055;28;19961;-70
2022/11/21 06:34:41;;;;;;;;;;;9.80;99.90;;;;;;5095798;28;20373;-72
2022/11/21 06:37:07;;;;;;;;;;;9.80;99.90;;;;;;5096319;28;19915;-72
2022/11/21 06:39:32;;;;;;;;;;;9.80;99.90;;;;;;5095698;28;20001;-72
2022/11/21 06:41:58;;;;;;;;;;;9.80;99.90;;;;;;5095950;28;20382;-71
2022/11/21 06:44:23;;;;;;;;;;;9.80;99.90;;;;;;5095525;28;19915;-71
2022/11/21 06:46:49;;;;;;;;;;;9.80;99.90;;;;;;5094457;28;19908;-72
2022/11/21 06:49:14;;;;;;;;;;;9.80;99.90;;;;;;5096024;28;19918;-71
2022/11/21 06:51:40;;;;;;;;;;;9.80;99.90;;;;;;5095384;28;19927;-72
2022/11/21 06:54:05;;;;;;;;;;;9.80;99.90;;;;;;5095723;28;20009;-72
2022/11/21 06:56:31;;;;;;;;;;;9.80;99.90;;;;;;5095347;28;20461;-72
2022/11/21 06:58:57;;;;;;;;;;;9.80;99.90;;;;;;5095312;28;19915;-73
2022/11/21 07:01:23;;;;;;;;;;;9.90;99.90;;;;;;5095501;28;19999;-71
2022/11/21 07:03:48;;;;;;;;;;;9.90;99.90;;;;;;5095175;28;19951;-70
2022/11/21 07:06:14;;;;;;;;;;;9.90;99.90;;;;;;5095182;28;19946;-73
2022/11/21 07:08:40;;;;;;;;;;;9.90;99.90;;;;;;5095388;28;20025;-72
2022/11/21 07:11:06;;;;;;;;;;;9.90;99.90;;;;;;5095016;28;19960;-72
2022/11/21 07:13:32;;;;;;;;;;;9.90;99.90;;;;;;5076810;28;20283;-70
2022/11/21 07:16:02;;;;;;;;;;;9.90;99.90;;;;;;5095028;28;19912;-72
2022/11/21 07:18:27;;;;;;;;;;;9.90;99.90;;;;;;5095236;28;19935;-71
2022/11/21 07:20:56;;;;;;;;;;;9.90;99.90;;;;;;5094849;28;20281;-70
2022/11/21 07:23:22;;;;;;;;;;;9.90;99.90;;;;;;5094855;28;19908;-71
2022/11/21 07:25:47;;;;;;;;;;;9.90;99.90;;;;;;5095350;28;19974;-72
2022/11/21 07:28:13;;;;;;;;;;;9.90;99.90;;;;;;5094763;28;19947;-70
2022/11/21 07:30:38;;;;;;;;;;;9.90;99.90;;;;;;5094907;28;19921;-71
2022/11/21 07:33:05;;;;;;;;;;;9.90;99.90;;;;;;5094627;28;20320;-70
2022/11/21 07:35:30;;;;;;;;;;;9.90;99.90;;;;;;5094888;28;19912;-70
2022/11/21 07:37:56;;;;;;;;;;;9.90;99.90;;;;;;5094609;28;19914;-71
2022/11/21 07:40:22;;;;;;;;;;;9.90;99.90;;;;;;5094833;28;19908;-71
2022/11/21 07:42:47;;;;;;;;;;;9.90;99.90;;;;;;5094476;28;20268;-71
2022/11/21 07:45:13;;;;;;;;;;;9.90;99.90;;;;;;5094475;28;19908;-73
2022/11/21 07:47:39;;;;;;;;;;;9.90;99.90;;;;;;5094432;28;19999;-71
2022/11/21 07:50:05;;;;;;;;;;;9.90;99.90;;;;;;5095163;28;19944;-73
2022/11/21 07:52:31;;;;;;;;;;;9.90;99.90;;;;;;5094038;28;20308;-70
2022/11/21 07:54:56;;;;;;;;;;;9.90;99.90;;;;;;5091516;28;19916;-79
2022/11/21 07:57:22;;;;;;;;;;;9.90;99.90;;;;;;5075176;28;19912;-75
2022/11/21 07:59:48;;;;;;;;;;;9.90;99.90;;;;;;5073449;28;19948;-74
2022/11/21 08:02:18;;;;;;;;;;;9.90;99.90;;;;;;5077923;28;19920;-77
2022/11/21 08:04:43;;;;;;;;;;;9.90;99.90;;;;;;5073940;28;19932;-78
2022/11/21 08:07:09;;;;;;;;;;;9.90;99.90;;;;;;5074141;28;20496;-73
2022/11/21 08:09:35;;;;;;;;;;;9.90;99.90;;;;;;5074868;28;19912;-72
2022/11/21 08:12:00;;;;;;;;;;;9.90;99.90;;;;;;5077016;28;19939;-71
2022/11/21 08:14:26;;;;;;;;;;;9.90;99.90;;;;;;5073826;28;20377;-79
2022/11/21 08:16:51;;;;;;;;;;;9.90;99.90;;;;;;5073426;28;19913;-73
2022/11/21 08:19:17;;;;;;;;;;;9.90;99.90;;;;;;5074298;28;19908;-72
2022/11/21 08:21:42;;;;;;;;;;;9.90;99.90;;;;;;5073094;28;19913;-77
2022/11/21 08:24:12;;;;;;;;;;;10.00;99.90;;;;;;5079221;28;19912;-79
2022/11/21 08:26:37;;;;;;;;;;;10.00;99.90;;;;;;5068635;28;19947;-77
2022/11/21 08:29:03;;;;;;;;;;;10.00;99.90;;;;;;5083269;28;19909;-77
2022/11/21 08:31:28;;;;;;;;;;;9.90;99.90;;;;;;5054908;28;19981;-79
2022/11/21 08:33:54;;;;;;;;;;;10.00;99.90;;;;;;5073090;28;20320;-79
2022/11/21 08:36:20;;;;;;;;;;;10.00;99.90;;;;;;5073898;28;20359;-75
2022/11/21 08:38:45;;;;;;;;;;;10.00;99.90;;;;;;5086599;28;19999;-79
2022/11/21 08:43:55;;;;;;;;;;;10.10;99.90;;;;;;5076435;28;19939;-77
2022/11/21 08:46:20;;;;;;;;;;;10.00;99.90;;;;;;5073555;28;19908;-78
2022/11/21 08:48:46;;;;;;;;;;;10.10;99.90;;;;;;5080301;28;19956;-78
2022/11/21 08:51:11;;;;;;;;;;;10.10;99.90;;;;;;5073392;28;19937;-77
2022/11/21 08:53:37;;;;;;;;;;;10.10;99.90;;;;;;5056099;28;19921;-78
2022/11/21 08:56:02;;;;;;;;;;;10.10;99.90;;;;;;5052510;28;20260;-77
2022/11/21 08:58:28;;;;;;;;;;;10.10;99.90;;;;;;5050973;28;19919;-78
2022/11/21 09:00:53;;;;;;;;;;;10.10;99.90;;;;;;5073310;28;19948;-74
2022/11/21 09:03:19;;;;;;;;;;;10.10;99.90;;;;;;5067766;28;19921;-74
2022/11/21 09:05:44;;;;;;;;;;;10.10;99.90;;;;;;5055044;28;19913;-78
2022/11/21 09:08:10;;;;;;;;;;;10.10;99.90;;;;;;5062560;28;19920;-74
2022/11/21 09:10:35;;;;;;;;;;;10.10;99.90;;;;;;5074264;28;19958;-77
2022/11/21 09:13:01;;;;;;;;;;;10.10;99.90;;;;;;5085755;28;19908;-77
2022/11/21 09:18:11;;;;;;;;;;;10.10;99.90;;;;;;5059612;28;19920;-76
2022/11/21 09:20:41;;;;;;;;;;;10.10;99.90;;;;;;5057892;28;20306;-77
2022/11/21 09:23:08;;;;;;;;;;;10.20;99.90;;;;;;5065587;28;20007;-75
2022/11/21 09:25:33;;;;;;;;;;;10.20;99.90;;;;;;5076348;28;20351;-74
2022/11/21 09:28:00;;;;;;;;;;;10.10;99.90;;;;;;5070499;28;20073;-74
2022/11/21 09:30:25;;;;;;;;;;;10.10;99.90;;;;;;5056713;28;19943;-77
2022/11/21 09:32:51;;;;;;;;;;;10.10;99.90;;;;;;5056771;28;19913;-75
2022/11/21 09:35:17;;;;;;;;;;;10.10;99.90;;;;;;5056266;28;19917;-77
2022/11/21 09:37:43;;;;;;;;;;;10.10;99.90;;;;;;5058256;28;19927;-75
2022/11/21 09:40:12;;;;;;;;;;;10.10;99.90;;;;;;5070105;28;20374;-78
2022/11/21 09:42:47;;;;;;;;;;;10.10;99.90;;;;;;5056591;28;19921;-77
2022/11/21 09:45:16;;;;;;;;;;;10.20;99.90;;;;;;5056882;28;19908;-78
2022/11/21 09:47:43;;;;;;;;;;;10.20;99.90;;;;;;5056307;28;20034;-78
2022/11/21 09:50:11;;;;;;;;;;;10.10;99.90;;;;;;5056370;28;20007;-77
2022/11/21 09:52:56;;;;;;;;;;;10.20;99.90;;;;;;5055884;28;19924;-78
2022/11/21 09:55:33;;;;;;;;;;;10.10;99.90;;;;;;5057112;28;20012;-77
2022/11/21 09:58:03;;;;;;;;;;;10.20;99.90;;;;;;5056459;28;19916;-81
2022/11/21 10:00:29;;;;;;;;;;;10.20;99.90;;;;;;5056528;28;19909;-76
2022/11/21 10:02:55;;;;;;;;;;;10.30;99.90;;;;;;5056718;28;19916;-75
2022/11/21 10:05:29;;;;;;;;;;;10.30;99.90;;;;;;5055032;28;19912;-77
2022/11/21 10:07:56;;;;;;;;;;;10.30;99.90;;;;;;5062170;28;20397;-80
2022/11/21 10:10:33;;;;;;;;;;;10.40;99.90;;;;;;5065756;28;19916;-75
2022/11/21 10:13:12;;;;;;;;;;;10.50;99.90;;;;;;5069625;28;19919;-78
2022/11/21 10:15:56;;;;;;;;;;;10.70;99.90;;;;;;5074864;28;19933;-80
2022/11/21 10:18:30;;;;;;;;;;;10.90;99.90;;;;;;5056358;28;20007;-78
2022/11/21 10:20:59;;;;;;;;;;;11.10;99.90;;;;;;5056284;28;20000;-79
2022/11/21 10:23:24;;;;;;;;;;;11.40;99.90;;;;;;5056666;28;20039;-78
2022/11/21 10:25:55;;;;;;;;;;;11.50;99.90;;;;;;5056158;28;19966;-80
2022/11/21 10:28:28;;;;;;;;;;;11.60;99.90;;;;;;5055812;28;19964;-83
2022/11/21 10:30:54;;;;;;;;;;;11.80;99.90;;;;;;5056488;28;19920;-80
2022/11/21 10:33:33;;;;;;;;;;;12.00;99.90;;;;;;5056755;28;19920;-80
2022/11/21 10:36:09;;;;;;;;;;;12.00;99.90;;;;;;5059743;28;19969;-74
2022/11/21 10:38:39;;;;;;;;;;;12.10;99.90;;;;;;5062496;28;19965;-77
2022/11/21 10:41:09;;;;;;;;;;;12.00;99.90;;;;;;5061650;28;19923;-79
2022/11/21 10:46:18;;;;;;;;;;;12.00;99.90;;;;;;5055764;28;20039;-74
2022/11/21 10:49:03;;;;;;;;;;;12.10;99.90;;;;;;5054472;28;20004;-76
2022/11/21 10:51:34;;;;;;;;;;;12.30;99.90;;;;;;5071267;28;19917;-75
2022/11/21 10:56:52;;;;;;;;;;;13.00;99.90;;;;;;5078984;28;19919;-75
2022/11/21 10:59:20;;;;;;;;;;;13.10;99.90;;;;;;5075400;28;19920;-77
2022/11/21 11:02:06;;;;;;;;;;;13.10;99.90;;;;;;5079824;28;20362;-77
2022/11/21 11:04:32;;;;;;;;;;;13.10;99.90;;;;;;5076676;28;19919;-77
2022/11/21 11:07:12;;;;;;;;;;;12.90;99.90;;;;;;5089420;28;19923;-78
2022/11/21 11:09:39;;;;;;;;;;;12.90;99.90;;;;;;5074262;28;19919;-78
2022/11/21 11:12:24;;;;;;;;;;;13.00;99.90;;;;;;5093224;28;19916;-75
2022/11/21 11:14:54;;;;;;;;;;;13.00;99.90;;;;;;5074625;28;19960;-76
2022/11/21 11:17:27;;;;;;;;;;;12.80;99.90;;;;;;5074803;28;19915;-77
2022/11/21 11:20:22;;;;;;;;;;;12.70;99.90;;;;;;5073885;28;20061;-76
2022/11/21 11:22:47;;;;;;;;;;;12.50;99.90;;;;;;5073834;28;19965;-74
2022/11/21 11:25:13;;;;;;;;;;;12.30;99.90;;;;;;5073995;28;20297;-73
2022/11/21 11:27:38;;;;;;;;;;;12.20;99.90;;;;;;5074463;28;19919;-73
2022/11/21 11:30:05;;;;;;;;;;;12.10;99.90;;;;;;5078131;28;19912;-75
2022/11/21 11:32:31;;;;;;;;;;;12.00;99.90;;;;;;5073903;28;19920;-77
2022/11/21 11:34:57;;;;;;;;;;;12.00;99.90;;;;;;5074403;28;19913;-73
2022/11/21 11:37:33;;;;;;;;;;;11.90;99.90;;;;;;5074436;28;19912;-74
2022/11/21 11:40:17;;;;;;;;;;;11.80;99.90;;;;;;5073263;28;19955;-73
2022/11/21 11:48:48;;;;;;;;;;;12.00;99.90;;;;;;5073237;28;19958;-73
2022/11/21 11:51:17;;;;;;;;;;;12.00;99.90;;;;;;5073587;28;19919;-72
2022/11/21 11:53:46;;;;;;;;;;;12.10;99.90;;;;;;5053442;28;20396;-73
2022/11/21 11:56:15;;;;;;;;;;;12.20;99.90;;;;;;5053580;28;19919;-73
2022/11/21 11:59:00;;;;;;;;;;;12.30;99.90;;;;;;5053659;28;19909;-72
2022/11/21 12:01:28;;;;;;;;;;;12.40;99.90;;;;;;5054243;28;19909;-73
2022/11/21 12:04:20;;;;;;;;;;;12.60;99.90;;;;;;5053877;28;20405;-74
2022/11/21 12:06:49;;;;;;;;;;;12.80;99.90;;;;;;5049824;28;19959;-73
2022/11/21 12:09:19;;;;;;;;;;;12.80;99.90;;;;;;5053851;28;19909;-73
2022/11/21 12:12:08;;;;;;;;;;;12.80;99.90;;;;;;5054307;28;19913;-74
2022/11/21 12:17:26;;;;;;;;;;;12.70;99.90;;;;;;5053774;28;19916;-73
2022/11/21 12:19:53;;;;;;;;;;;12.70;99.90;;;;;;5053689;28;19916;-73
2022/11/21 12:22:18;;;;;;;;;;;12.70;99.90;;;;;;5053955;28;19908;-73
2022/11/21 12:24:44;;;;;;;;;;;12.70;99.90;;;;;;5053629;28;20011;-73
2022/11/21 12:27:18;;;;;;;;;;;12.50;99.90;;;;;;5054180;28;20374;-73
2022/11/21 12:29:43;;;;;;;;;;;12.30;99.90;;;;;;5053934;28;19948;-72
2022/11/21 12:32:18;;;;;;;;;;;12.10;99.90;;;;;;5053740;28;19978;-73
2022/11/21 12:35:01;;;;;;;;;;;12.00;99.90;;;;;;5053516;28;19908;-74
2022/11/21 12:37:46;;;;;;;;;;;11.90;99.90;;;;;;5054020;28;19908;-72
2022/11/21 12:40:11;;;;;;;;;;;12.00;99.90;;;;;;5053372;28;19931;-73
2022/11/21 12:42:49;;;;;;;;;;;12.10;99.90;;;;;;5053383;28;20354;-72
2022/11/21 12:45:32;;;;;;;;;;;12.00;99.90;;;;;;5058151;28;19909;-72
2022/11/21 12:54:36;;;;;;;;;;;12.10;99.90;;;;;;5057526;28;20448;-73
2022/11/21 12:57:12;;;;;;;;;;;11.70;99.90;;;;;;5057668;28;20011;-72
2022/11/21 12:59:44;;;;;;;;;;;11.40;99.90;;;;;;5057376;28;19975;-73
2022/11/21 13:02:12;;;;;;;;;;;11.30;99.90;;;;;;5057324;28;20012;-73
2022/11/21 13:04:40;;;;;;;;;;;11.30;99.90;;;;;;5057827;28;19915;-75
2022/11/21 13:07:06;;;;;;;;;;;11.30;99.90;;;;;;5062253;28;19908;-75
2022/11/21 13:09:44;;;;;;;;;;;11.20;99.90;;;;;;5076945;28;19974;-76
2022/11/21 13:12:32;;;;;;;;;;;11.10;99.90;;;;;;5058817;28;19919;-76
2022/11/21 13:15:16;;;;;;;;;;;11.10;99.90;;;;;;5077236;28;19909;-77
2022/11/21 13:17:44;;;;;;;;;;;11.40;99.90;;;;;;5076652;28;20011;-77
2022/11/21 13:20:13;;;;;;;;;;;11.70;99.90;;;;;;5057495;28;19919;-77
2022/11/21 13:22:38;;;;;;;;;;;11.80;99.90;;;;;;5057116;28;19908;-77
2022/11/21 13:25:10;;;;;;;;;;;11.80;99.90;;;;;;5056891;28;19927;-77
2022/11/21 13:27:37;;;;;;;;;;;11.80;99.90;;;;;;5057154;28;19909;-77
2022/11/21 13:30:05;;;;;;;;;;;11.80;99.90;;;;;;5056815;28;19909;-80
2022/11/21 13:32:41;;;;;;;;;;;11.80;99.90;;;;;;5057110;28;19913;-79
2022/11/21 13:35:15;;;;;;;;;;;11.90;99.90;;;;;;5056439;28;20362;-76
2022/11/21 13:38:00;;;;;;;;;;;11.80;99.90;;;;;;5074840;28;19962;-78
2022/11/21 13:40:26;;;;;;;;;;;11.80;99.90;;;;;;5058754;28;20353;-79
2022/11/21 13:43:11;;;;;;;;;;;11.90;99.90;;;;;;5058889;28;19940;-81
2022/11/21 13:45:42;;;;;;;;;;;11.90;99.90;;;;;;5056219;28;19966;-80
2022/11/21 13:48:13;;;;;;;;;;;11.90;99.90;;;;;;5058569;28;20437;-78
2022/11/21 13:50:49;;;;;;;;;;;11.90;99.90;;;;;;5061742;28;19920;-75
2022/11/21 13:53:35;;;;;;;;;;;11.90;99.90;;;;;;5073318;28;19920;-77
2022/11/21 13:56:04;;;;;;;;;;;11.90;99.90;;;;;;5074447;28;20437;-78
2022/11/21 13:58:40;;;;;;;;;;;11.80;99.90;;;;;;5057789;28;19958;-81
2022/11/21 14:01:08;;;;;;;;;;;11.80;99.90;;;;;;5075750;28;20382;-76
2022/11/21 14:03:34;;;;;;;;;;;11.70;99.90;;;;;;5074949;28;19920;-78
2022/11/21 14:06:11;;;;;;;;;;;11.60;99.90;;;;;;5095587;28;20425;-74
2022/11/21 14:08:36;;;;;;;;;;;11.50;99.90;;;;;;5089682;28;20389;-75
2022/11/21 14:11:17;;;;;;;;;;;11.40;99.90;;;;;;5077967;28;19931;-76
2022/11/21 14:13:45;;;;;;;;;;;11.30;99.90;;;;;;5075547;28;20382;-74
2022/11/21 14:16:14;;;;;;;;;;;11.40;99.90;;;;;;5082170;28;20329;-73
2022/11/21 14:18:42;;;;;;;;;;;11.40;99.90;;;;;;5095818;28;19921;-74
2022/11/21 14:21:16;;;;;;;;;;;11.50;99.90;;;;;;5075029;28;19916;-75
2022/11/21 14:23:42;;;;;;;;;;;11.40;99.90;;;;;;5075933;28;20003;-78
2022/11/21 14:26:12;;;;;;;;;;;11.40;99.90;;;;;;5076019;28;20270;-77
2022/11/21 14:28:38;;;;;;;;;;;11.30;99.90;;;;;;5077081;28;19940;-76
2022/11/21 14:31:07;;;;;;;;;;;11.20;99.90;;;;;;5075740;28;20009;-75
2022/11/21 14:33:40;;;;;;;;;;;11.20;99.90;;;;;;5057241;28;19908;-74
2022/11/21 14:36:08;;;;;;;;;;;11.20;99.90;;;;;;5074056;28;20367;-75
2022/11/21 14:38:35;;;;;;;;;;;11.30;99.90;;;;;;5075438;28;19915;-81
2022/11/21 14:41:19;;;;;;;;;;;11.20;99.90;;;;;;5089528;28;19920;-75
2022/11/21 14:43:44;;;;;;;;;;;11.00;99.90;;;;;;5095508;28;19912;-75
2022/11/21 14:46:13;;;;;;;;;;;10.80;99.90;;;;;;5095664;28;19934;-74
2022/11/21 14:48:41;;;;;;;;;;;10.70;99.90;;;;;;5083054;28;20329;-80
2022/11/21 14:51:10;;;;;;;;;;;10.70;99.90;;;;;;5077086;28;19957;-80
2022/11/21 14:53:41;;;;;;;;;;;10.60;99.90;;;;;;5088392;28;19927;-81
2022/11/21 14:56:11;;;;;;;;;;;10.60;99.90;;;;;;5075055;28;19909;-79
2022/11/21 14:58:36;;;;;;;;;;;10.70;99.90;;;;;;5075122;28;19992;-78
2022/11/21 15:01:18;;;;;;;;;;;10.60;99.90;;;;;;5088780;28;19944;-74
2022/11/21 15:04:03;;;;;;;;;;;10.60;99.90;;;;;;5088145;28;19999;-78